Terminal Aerodrome Forecast
Issued by NWS Omaha/Valley, NE

Home | Current Version | Previous Version | Graphics & Text | Print | Product List | Glossary On
Versions: 1 2 3 4 5 6 7 8 9 10 11 12 13 14 15 16 17 18 19 20
000
FTUS43 KOAX 221725
TAFOFK
TAF
KOFK 221725Z 2218/2318 03003KT P6SM SCT017
      TEMPO 2218/2222 BKN020
     FM230000 02006KT P6SM BKN250
     FM230700 VRB04KT 4SM HZ BR BKN250
     FM231400 13007KT P6SM SKC=

USA.gov is the U.S. government's official web portal to all federal, state and local government web resources and services.